Time;durP1;ratioP1;P1;durP2;ratioP2;P2;SDS_P1;SDS_P2;PMS_P1;PMS_P2;Temp;Humidity;BMP_temperature;BMP_pressure;BME280_temperature;BME280_humidity;BME280_pressure;Samples;Min_cycle;Max_cycle;Signal;HPM_P1;HPM_P2
2022/02/27 00:00:15;;;;;;;1.57;1.10;;;;;;;1.97;82.02;97557.84;5036158;28;20225;-72
2022/02/27 00:02:42;;;;;;;1.03;0.93;;;;;;;1.88;82.61;97555.81;5036065;28;20229;-72
2022/02/27 00:05:09;;;;;;;2.43;1.03;;;;;;;1.94;82.38;97565.84;5036277;28;20224;-72
2022/02/27 00:07:37;;;;;;;0.90;0.90;;;;;;;1.72;82.83;97578.47;5036464;28;20589;-72
2022/02/27 00:10:04;;;;;;;1.80;1.27;;;;;;;1.62;83.96;97574.72;5036703;28;20208;-72
2022/02/27 00:12:31;;;;;;;1.90;0.83;;;;;;;1.81;82.20;97560.53;5035612;28;20227;-72
2022/02/27 00:14:57;;;;;;;0.50;0.50;;;;;;;1.82;82.23;97564.00;5036145;28;20195;-72
2022/02/27 00:17:24;;;;;;;4.10;0.73;;;;;;;1.87;81.37;97564.53;5036169;28;20212;-72
2022/02/27 00:19:50;;;;;;;2.00;1.47;;;;;;;1.85;81.33;97563.81;5036723;28;20201;-72
2022/02/27 00:22:16;;;;;;;1.10;1.00;;;;;;;1.67;82.38;97570.09;5035970;28;20619;-72
2022/02/27 00:24:44;;;;;;;6.90;1.43;;;;;;;1.80;82.86;97562.41;5035957;28;21047;-72
2022/02/27 00:27:11;;;;;;;0.77;0.60;;;;;;;1.61;81.47;97573.06;5036138;28;20251;-72
2022/02/27 00:29:37;;;;;;;1.13;1.03;;;;;;;1.72;80.93;97570.66;5036281;28;20201;-72
2022/02/27 00:32:04;;;;;;;0.73;0.73;;;;;;;1.69;80.41;97570.84;5036861;28;20220;-72
2022/02/27 00:34:31;;;;;;;1.10;0.87;;;;;;;1.62;80.92;97566.94;5038777;28;20682;-72
2022/02/27 00:36:58;;;;;;;1.77;1.00;;;;;;;1.60;81.41;97566.19;5039810;28;20678;-72
2022/02/27 00:39:24;;;;;;;0.83;0.80;;;;;;;1.64;81.01;97574.63;5039823;28;20208;-72
2022/02/27 00:41:52;;;;;;;1.37;1.27;;;;;;;1.74;81.57;97566.19;5039040;28;20270;-72
2022/02/27 00:44:18;;;;;;;1.17;1.03;;;;;;;1.68;81.14;97569.19;5039116;28;20216;-72
2022/02/27 00:46:45;;;;;;;3.40;0.70;;;;;;;1.58;82.44;97578.44;5039535;28;20216;-72
2022/02/27 00:49:12;;;;;;;1.03;0.80;;;;;;;1.63;81.88;97560.81;5039057;28;20634;-72
2022/02/27 00:51:38;;;;;;;1.87;1.07;;;;;;;1.53;80.75;97564.88;5039128;28;20219;-72
2022/02/27 00:54:05;;;;;;;0.70;0.50;;;;;;;1.52;80.69;97565.81;5039126;28;20199;-72
2022/02/27 00:56:31;;;;;;;0.63;0.63;;;;;;;1.52;81.40;97564.97;5038941;28;20493;-72
2022/02/27 00:58:59;;;;;;;11.87;0.70;;;;;;;1.56;80.94;97563.88;5039316;28;20201;-72
2022/02/27 01:01:25;;;;;;;4.60;2.03;;;;;;;1.38;81.09;97560.59;5038921;28;20224;-72
2022/02/27 01:03:52;;;;;;;2.27;1.30;;;;;;;1.31;81.98;97554.09;5038155;28;20602;-73
2022/02/27 01:06:18;;;;;;;2.23;1.63;;;;;;;1.43;81.19;97561.16;5039144;28;20288;-72
2022/02/27 01:08:45;;;;;;;2.17;1.57;;;;;;;1.40;81.02;97568.28;5038692;28;20569;-73
2022/02/27 01:11:12;;;;;;;0.97;0.90;;;;;;;1.32;80.40;97560.97;5038621;28;20217;-72
2022/02/27 01:13:39;;;;;;;4.40;1.63;;;;;;;1.19;81.79;97555.75;5038572;28;20205;-72
2022/02/27 01:16:07;;;;;;;0.60;0.43;;;;;;;1.41;81.75;97555.22;5039163;28;20212;-72
2022/02/27 01:18:33;;;;;;;8.47;1.17;;;;;;;1.18;82.44;97547.09;5038697;28;20209;-72
2022/02/27 01:21:00;;;;;;;1.73;1.13;;;;;;;1.09;83.14;97547.63;5038952;28;20216;-72
2022/02/27 01:23:26;;;;;;;1.13;1.07;;;;;;;1.20;82.71;97542.66;5037744;28;20255;-72
2022/02/27 01:25:52;;;;;;;2.67;1.17;;;;;;;1.19;82.33;97541.81;5038679;28;20837;-72
2022/02/27 01:28:19;;;;;;;0.60;0.60;;;;;;;1.32;81.95;97540.19;5038972;28;20205;-72
2022/02/27 01:30:45;;;;;;;1.40;1.30;;;;;;;1.04;82.29;97543.63;5038664;28;20677;-72
2022/02/27 01:33:14;;;;;;;2.23;0.93;;;;;;;1.26;81.59;97550.06;5038675;28;20208;-72
2022/02/27 01:35:41;;;;;;;0.83;0.83;;;;;;;1.09;81.43;97546.81;5038785;28;20201;-72
2022/02/27 01:38:07;;;;;;;4.20;1.00;;;;;;;1.01;82.73;97547.25;5038070;28;20729;-72
2022/02/27 01:40:33;;;;;;;2.27;1.47;;;;;;;0.88;83.75;97543.69;5038900;28;21141;-72
2022/02/27 01:43:01;;;;;;;0.80;0.60;;;;;;;0.80;85.12;97537.22;5038007;28;20617;-72
2022/02/27 01:45:27;;;;;;;1.00;0.67;;;;;;;0.87;85.70;97534.22;5038204;28;20746;-72
2022/02/27 01:47:54;;;;;;;2.50;1.33;;;;;;;0.87;85.62;97538.56;5038293;28;20204;-72
2022/02/27 01:50:22;;;;;;;1.53;1.43;;;;;;;1.03;85.76;97536.75;5038640;28;20202;-72
2022/02/27 01:52:48;;;;;;;1.70;1.40;;;;;;;0.94;85.83;97537.28;5037398;28;20229;-72
2022/02/27 01:55:15;;;;;;;0.80;0.80;;;;;;;1.02;85.57;97540.28;5038427;28;20383;-72
2022/02/27 01:57:42;;;;;;;0.73;0.73;;;;;;;0.83;86.84;97539.69;5038381;28;20205;-72
2022/02/27 02:00:10;;;;;;;1.70;1.27;;;;;;;1.02;86.15;97535.09;5037999;28;20627;-72
2022/02/27 02:02:37;;;;;;;2.33;1.83;;;;;;;0.92;86.42;97526.19;5037588;28;20228;-72
2022/02/27 02:05:04;;;;;;;13.43;1.53;;;;;;;0.94;86.86;97532.09;5037558;28;20677;-72
2022/02/27 02:07:32;;;;;;;2.17;1.37;;;;;;;0.90;87.22;97525.41;5037978;28;20208;-72
2022/02/27 02:09:58;;;;;;;2.73;1.80;;;;;;;0.86;87.39;97529.94;5037856;28;20201;-73
2022/02/27 02:12:25;;;;;;;0.47;0.47;;;;;;;1.02;87.35;97520.38;5037755;28;20224;-72
2022/02/27 02:14:52;;;;;;;3.83;1.73;;;;;;;1.03;86.17;97531.56;5037758;28;20197;-72
2022/02/27 02:17:18;;;;;;;0.73;0.73;;;;;;;1.05;86.13;97532.34;5037567;28;20567;-72
2022/02/27 02:19:44;;;;;;;1.03;0.90;;;;;;;1.07;86.50;97528.72;5037810;28;20205;-72
2022/02/27 02:22:13;;;;;;;15.03;2.10;;;;;;;1.10;87.09;97525.13;5037413;28;20588;-72
2022/02/27 02:24:39;;;;;;;1.73;0.97;;;;;;;1.08;87.06;97525.19;5037367;28;20253;-72
2022/02/27 02:27:06;;;;;;;1.10;1.00;;;;;;;1.02;86.76;97520.38;5037839;28;20197;-72
2022/02/27 02:29:32;;;;;;;1.27;1.17;;;;;;;0.92;87.73;97528.78;5037530;28;20665;-72
2022/02/27 02:31:59;;;;;;;7.40;1.17;;;;;;;1.02;88.07;97522.97;5037013;28;20225;-72
2022/02/27 02:34:26;;;;;;;1.97;1.80;;;;;;;0.98;88.22;97525.81;5037274;28;20768;-72
2022/02/27 02:36:54;;;;;;;1.07;1.03;;;;;;;1.00;88.30;97522.19;5037682;28;20205;-72
2022/02/27 02:39:24;;;;;;;6.17;1.93;;;;;;;1.20;87.69;97527.91;5036920;28;20197;-72
2022/02/27 02:41:51;;;;;;;1.47;1.03;;;;;;;1.20;86.91;97519.31;5037701;28;20218;-72
2022/02/27 02:44:17;;;;;;;6.00;1.20;;;;;;;1.20;86.70;97514.94;5037092;28;20238;-73
2022/02/27 02:46:45;;;;;;;1.50;0.90;;;;;;;1.26;86.59;97511.13;5037054;28;20579;-73
2022/02/27 02:49:13;;;;;;;1.60;1.27;;;;;;;1.29;86.98;97509.19;5037130;28;20202;-72
2022/02/27 02:51:40;;;;;;;2.93;1.13;;;;;;;1.22;86.30;97507.91;5036931;28;20705;-72
2022/02/27 02:54:07;;;;;;;1.80;1.43;;;;;;;1.26;86.38;97496.41;5036252;28;20212;-73
2022/02/27 02:56:36;;;;;;;1.37;1.30;;;;;;;1.40;86.15;97496.44;5036433;28;20262;-72
2022/02/27 02:59:03;;;;;;;1.57;1.27;;;;;;;1.34;85.28;97496.78;5037389;28;20208;-72
2022/02/27 03:01:30;;;;;;;1.27;1.17;;;;;;;1.25;85.37;97497.31;5036522;28;20217;-72
2022/02/27 03:03:57;;;;;;;2.73;1.87;;;;;;;1.29;85.96;97501.41;5036145;28;20573;-72
2022/02/27 03:06:24;;;;;;;8.93;1.90;;;;;;;1.23;85.19;97504.38;5036924;28;20201;-72
2022/02/27 03:08:51;;;;;;;4.10;2.50;;;;;;;1.20;84.65;97520.13;5037245;28;20209;-72
2022/02/27 03:11:19;;;;;;;1.93;1.50;;;;;;;1.21;85.24;97506.22;5036533;28;20239;-72
2022/02/27 03:13:47;;;;;;;1.83;1.00;;;;;;;1.40;85.20;97512.00;5036068;28;20601;-72
2022/02/27 03:16:14;;;;;;;4.13;1.97;;;;;;;1.36;84.23;97512.25;5037240;28;20512;-72
2022/02/27 03:18:41;;;;;;;1.07;1.00;;;;;;;1.17;84.63;97510.84;5036170;28;20220;-72
2022/02/27 03:21:08;;;;;;;6.00;2.97;;;;;;;1.00;84.91;97514.41;5036400;28;20229;-72
2022/02/27 03:23:35;;;;;;;2.23;1.50;;;;;;;1.23;84.95;97516.50;5036016;28;20342;-72
2022/02/27 03:26:02;;;;;;;0.50;0.50;;;;;;;1.10;85.10;97512.16;5036387;28;20233;-72
2022/02/27 03:28:29;;;;;;;3.50;1.17;;;;;;;1.13;85.54;97512.78;5036148;28;20234;-72
2022/02/27 03:30:56;;;;;;;1.20;1.00;;;;;;;1.16;87.61;97516.94;5036403;28;20222;-72
2022/02/27 03:33:23;;;;;;;2.57;1.33;;;;;;;1.09;86.88;97508.69;5031908;28;20201;-72
2022/02/27 03:35:49;;;;;;;15.93;1.90;;;;;;;1.08;88.01;97514.81;5036142;28;20198;-72
2022/02/27 03:38:16;;;;;;;0.80;0.80;;;;;;;1.05;88.16;97503.78;5036142;28;20693;-72
2022/02/27 03:40:43;;;;;;;0.73;0.73;;;;;;;0.99;88.16;97498.94;5035920;28;20860;-72
2022/02/27 03:43:10;;;;;;;1.40;1.30;;;;;;;0.98;89.32;97497.25;5035586;28;20470;-71
2022/02/27 03:45:36;;;;;;;2.73;1.33;;;;;;;1.02;88.50;97498.75;5036481;28;20217;-72
2022/02/27 03:48:05;;;;;;;1.10;1.00;;;;;;;1.22;87.73;97494.91;5036150;28;20220;-72
2022/02/27 03:50:31;;;;;;;2.23;1.40;;;;;;;1.08;88.18;97496.63;5035258;28;20202;-72
2022/02/27 03:52:58;;;;;;;1.33;1.23;;;;;;;1.11;88.40;97493.03;5035701;28;20224;-72
2022/02/27 03:55:24;;;;;;;3.00;1.10;;;;;;;1.08;88.28;97496.63;5036511;28;20205;-72
2022/02/27 03:57:51;;;;;;;8.60;1.70;;;;;;;1.20;87.33;97488.97;5035859;28;20465;-72
2022/02/27 04:00:18;;;;;;;2.83;1.70;;;;;;;1.24;87.09;97485.25;5035945;28;20212;-72
2022/02/27 04:02:46;;;;;;;1.33;1.23;;;;;;;1.19;87.35;97485.66;5035193;28;20804;-72
2022/02/27 04:05:14;;;;;;;1.77;1.23;;;;;;;1.19;87.72;97485.66;5035674;28;20622;-72
2022/02/27 04:07:41;;;;;;;0.90;0.90;;;;;;;0.90;87.93;97489.91;5035081;28;20222;-72
2022/02/27 04:10:08;;;;;;;2.20;1.57;;;;;;;1.00;88.82;97491.06;5036345;28;20205;-72
2022/02/27 04:12:34;;;;;;;1.63;0.70;;;;;;;1.02;87.35;97488.38;5035038;28;20221;-72
2022/02/27 04:15:01;;;;;;;2.00;1.20;;;;;;;1.08;87.44;97490.63;5035433;28;20197;-72
2022/02/27 04:17:28;;;;;;;0.97;0.90;;;;;;;1.04;87.01;97496.91;5035829;28;20213;-72
2022/02/27 04:19:54;;;;;;;1.43;1.10;;;;;;;0.72;89.62;97492.75;5035557;28;20665;-72
2022/02/27 04:22:22;;;;;;;13.60;1.70;;;;;;;1.11;89.45;97498.22;5035094;28;20222;-72
2022/02/27 04:24:48;;;;;;;0.50;0.50;;;;;;;1.06;89.04;97498.50;5036391;28;20224;-73
2022/02/27 04:27:16;;;;;;;1.07;0.97;;;;;;;1.12;87.49;97498.16;5035794;28;20208;-72
2022/02/27 04:29:45;;;;;;;2.70;1.17;;;;;;;1.16;86.70;97491.00;5035192;28;20741;-72
2022/02/27 04:32:11;;;;;;;0.70;0.67;;;;;;;1.11;86.51;97501.66;5035031;28;20320;-72
2022/02/27 04:34:38;;;;;;;3.17;2.60;;;;;;;1.07;85.67;97504.50;5035917;28;20193;-72
2022/02/27 04:37:05;;;;;;;3.00;1.60;;;;;;;1.00;85.13;97498.03;5036007;28;20279;-72
2022/02/27 04:39:33;;;;;;;4.60;1.50;;;;;;;0.96;85.63;97497.34;5035469;28;20200;-73
2022/02/27 04:41:59;;;;;;;0.70;0.70;;;;;;;0.79;86.37;97499.25;5035707;28;20724;-72
2022/02/27 04:44:26;;;;;;;1.40;1.30;;;;;;;0.72;87.35;97511.72;5034960;28;20386;-72
2022/02/27 04:46:52;;;;;;;8.07;2.60;;;;;;;0.66;87.56;97511.25;5035104;28;20580;-72
2022/02/27 04:49:19;;;;;;;1.97;1.33;;;;;;;0.60;87.97;97511.59;5035693;28;20210;-72
2022/02/27 04:51:45;;;;;;;1.80;1.27;;;;;;;0.58;88.17;97503.06;5034998;28;20868;-72
2022/02/27 04:54:12;;;;;;;0.80;0.80;;;;;;;0.64;87.48;97511.34;5034875;28;20197;-72
2022/02/27 04:56:40;;;;;;;0.87;0.77;;;;;;;0.68;87.43;97499.03;5035986;28;20790;-72
2022/02/27 04:59:06;;;;;;;1.13;0.87;;;;;;;0.48;87.36;97501.09;5035162;28;20208;-72
2022/02/27 05:01:33;;;;;;;10.60;1.07;;;;;;;0.62;86.60;97513.19;5035127;28;20667;-72
2022/02/27 05:03:59;;;;;;;3.30;0.90;;;;;;;0.43;86.85;97514.28;5035122;28;20201;-72
2022/02/27 05:06:26;;;;;;;1.37;1.27;;;;;;;0.63;86.38;97511.44;5036025;28;20515;-71
2022/02/27 05:08:52;;;;;;;3.50;1.10;;;;;;;0.69;86.28;97511.09;5035347;28;20752;-72
2022/02/27 05:11:19;;;;;;;3.73;2.07;;;;;;;0.56;86.31;97515.31;5034930;28;20228;-72
2022/02/27 05:13:47;;;;;;;2.77;1.43;;;;;;;0.60;87.07;97509.00;5034907;28;20304;-72
2022/02/27 05:16:13;;;;;;;1.47;1.07;;;;;;;0.49;87.84;97519.13;5035725;28;20194;-72
2022/02/27 05:18:40;;;;;;;1.27;1.17;;;;;;;0.47;88.44;97513.22;5031744;28;20220;-72
2022/02/27 05:21:06;;;;;;;2.97;1.73;;;;;;;0.31;88.79;97514.16;5038962;28;20226;-72
2022/02/27 05:23:33;;;;;;;2.57;1.83;;;;;;;0.26;88.16;97516.97;5038903;28;20482;-72
2022/02/27 05:25:59;;;;;;;1.50;1.40;;;;;;;0.35;87.75;97513.88;5038796;28;20598;-72
2022/02/27 05:28:26;;;;;;;1.27;1.27;;;;;;;0.35;88.78;97521.66;5038535;28;20476;-72
2022/02/27 05:30:55;;;;;;;1.43;1.20;;;;;;;0.51;89.26;97526.81;5038681;28;20209;-72
2022/02/27 05:33:22;;;;;;;1.47;1.37;;;;;;;0.28;90.01;97520.34;5038086;28;20212;-72
2022/02/27 05:35:48;;;;;;;1.37;1.27;;;;;;;-0.02;89.69;97522.94;5037678;28;20228;-70
2022/02/27 05:38:15;;;;;;;1.40;1.30;;;;;;;0.13;89.93;97528.13;5040138;28;20232;-71
2022/02/27 05:40:41;;;;;;;0.97;0.77;;;;;;;0.23;90.25;97527.53;5040076;28;20259;-71
2022/02/27 05:43:08;;;;;;;1.77;1.63;;;;;;;0.20;90.66;97532.84;5039911;28;20198;-70
2022/02/27 05:45:34;;;;;;;4.00;0.90;;;;;;;0.29;90.30;97537.53;5040257;28;20217;-70
2022/02/27 05:48:02;;;;;;;3.60;1.90;;;;;;;0.41;91.25;97536.88;5039770;28;20940;-69
2022/02/27 05:50:29;;;;;;;8.20;1.77;;;;;;;0.21;91.10;97541.50;5040341;28;20204;-70
2022/02/27 05:52:56;;;;;;;0.70;0.70;;;;;;;0.35;90.65;97547.59;5038258;28;20227;-71
2022/02/27 05:55:22;;;;;;;2.37;1.33;;;;;;;0.28;90.75;97543.66;5039818;28;20193;-70
2022/02/27 05:57:49;;;;;;;2.03;1.17;;;;;;;0.33;91.14;97544.25;5040226;28;20205;-71
2022/02/27 06:00:16;;;;;;;0.80;0.80;;;;;;;0.14;90.59;97540.13;5040198;28;20667;-71
2022/02/27 06:02:42;;;;;;;2.67;1.13;;;;;;;-0.04;89.94;97541.13;5040375;28;20236;-70
2022/02/27 06:05:10;;;;;;;1.63;1.47;;;;;;;0.07;89.91;97539.63;5039387;28;20225;-70
2022/02/27 06:07:37;;;;;;;2.83;1.33;;;;;;;0.14;89.18;97547.91;5039159;28;20212;-70
2022/02/27 06:10:04;;;;;;;2.27;2.03;;;;;;;0.25;86.77;97541.22;5037778;28;20201;-71
2022/02/27 06:12:30;;;;;;;1.90;1.43;;;;;;;0.17;88.03;97547.75;5036919;28;20217;-69
2022/02/27 06:14:57;;;;;;;3.10;1.50;;;;;;;0.26;88.59;97553.28;5038017;28;20202;-70
2022/02/27 06:17:23;;;;;;;3.80;1.67;;;;;;;0.38;88.43;97551.75;5037996;28;20205;-71
2022/02/27 06:19:50;;;;;;;15.07;1.57;;;;;;;0.33;89.42;97544.25;5038354;28;20578;-71
2022/02/27 06:22:18;;;;;;;1.90;1.27;;;;;;;0.54;88.84;97550.00;5038809;28;20245;-71
2022/02/27 06:24:44;;;;;;;0.93;0.93;;;;;;;0.20;90.13;97550.19;5039318;28;20205;-71
2022/02/27 06:27:11;;;;;;;6.13;1.90;;;;;;;0.19;91.60;97551.09;5038918;28;20221;-71
2022/02/27 06:29:37;;;;;;;1.27;1.17;;;;;;;0.20;92.53;97555.34;5038632;28;20687;-70
2022/02/27 06:32:05;;;;;;;1.77;1.07;;;;;;;0.27;92.23;97554.94;5039063;28;20232;-71
2022/02/27 06:34:31;;;;;;;1.90;1.17;;;;;;;0.29;92.11;97557.44;5038841;28;20947;-71
2022/02/27 06:36:58;;;;;;;4.83;0.97;;;;;;;0.22;92.72;97563.91;5040150;28;20200;-69
2022/02/27 06:39:25;;;;;;;3.43;2.17;;;;;;;0.42;92.81;97564.50;5038904;28;20666;-71
2022/02/27 06:41:52;;;;;;;1.47;1.37;;;;;;;0.29;92.48;97571.22;5039377;28;20224;-70
2022/02/27 06:44:18;;;;;;;1.53;1.23;;;;;;;0.48;91.66;97571.91;5039149;28;20201;-70
2022/02/27 06:46:45;;;;;;;3.13;1.03;;;;;;;0.60;91.71;97564.31;5038916;28;20240;-73
2022/02/27 06:49:11;;;;;;;1.33;0.90;;;;;;;0.63;91.84;97568.47;5038871;28;20692;-70
2022/02/27 06:51:38;;;;;;;4.90;1.70;;;;;;;0.67;91.43;97573.41;5038412;28;20225;-70
2022/02/27 06:54:04;;;;;;;3.30;2.07;;;;;;;0.78;91.73;97567.63;5037512;28;20307;-70
2022/02/27 06:56:32;;;;;;;1.40;1.07;;;;;;;1.22;89.86;97564.16;5038536;28;20198;-73
2022/02/27 06:58:59;;;;;;;2.27;2.07;;;;;;;1.11;89.79;97568.28;5038690;28;20208;-73
2022/02/27 07:01:25;;;;;;;2.40;1.73;;;;;;;1.07;89.42;97570.25;5038123;28;20221;-70
2022/02/27 07:03:52;;;;;;;6.50;1.80;;;;;;;1.10;89.79;97574.44;5037405;28;20287;-69
2022/02/27 07:06:18;;;;;;;1.60;1.33;;;;;;;1.12;90.27;97573.44;5038694;28;20263;-69
2022/02/27 07:08:45;;;;;;;6.03;1.90;;;;;;;0.94;91.49;97582.25;5038528;28;20977;-70
2022/02/27 07:11:11;;;;;;;2.70;2.17;;;;;;;1.12;91.31;97572.56;5038573;28;20264;-71
2022/02/27 07:13:41;;;;;;;2.47;1.47;;;;;;;1.27;91.86;97573.38;5038594;28;20828;-71
2022/02/27 07:16:07;;;;;;;4.03;2.00;;;;;;;1.20;91.87;97585.03;5038753;28;20193;-70
2022/02/27 07:18:34;;;;;;;2.30;1.53;;;;;;;1.09;92.66;97586.56;5038607;28;20218;-71
2022/02/27 07:21:00;;;;;;;5.00;2.67;;;;;;;1.30;92.22;97586.16;5038586;28;20232;-70
2022/02/27 07:23:26;;;;;;;0.80;0.80;;;;;;;1.19;92.95;97589.47;5038282;28;20201;-70
2022/02/27 07:25:53;;;;;;;3.50;1.70;;;;;;;1.40;92.04;97579.53;5037369;28;20221;-70
2022/02/27 07:28:19;;;;;;;1.90;1.37;;;;;;;1.66;91.31;97580.59;5037917;28;20216;-70
2022/02/27 07:30:47;;;;;;;1.30;1.20;;;;;;;1.62;91.79;97595.50;5038571;28;20203;-71
2022/02/27 07:33:14;;;;;;;21.73;2.57;;;;;;;1.50;92.71;97593.66;5037857;28;20208;-69
2022/02/27 07:35:40;;;;;;;2.40;1.63;;;;;;;4.50;95.19;97585.06;5038095;28;20293;-71
2022/02/27 07:38:07;;;;;;;7.75;3.33;;;;;;;3.51;85.71;97585.09;5036823;28;20931;-71
2022/02/27 07:40:33;;;;;;;7.13;2.13;;;;;;;3.06;85.37;97586.31;5039098;28;20205;-70
2022/02/27 07:43:00;;;;;;;5.60;2.40;;;;;;;1.99;89.32;97595.81;5037645;28;20212;-70
2022/02/27 07:45:26;;;;;;;1.67;1.40;;;;;;;2.23;89.67;97594.34;5038372;28;20977;-70
2022/02/27 07:47:54;;;;;;;0.90;0.87;;;;;;;2.31;90.52;97601.69;5039115;28;20211;-70
2022/02/27 07:50:21;;;;;;;2.83;2.17;;;;;;;2.23;90.36;97604.75;5038582;28;20204;-71
2022/02/27 07:52:47;;;;;;;1.67;1.57;;;;;;;2.09;89.97;97607.34;5037372;28;20221;-70
2022/02/27 07:55:14;;;;;;;1.83;1.30;;;;;;;2.11;90.54;97599.44;5038946;28;20209;-71
2022/02/27 07:57:40;;;;;;;1.67;1.10;;;;;;;2.14;91.17;97614.84;5036558;28;20212;-70
2022/02/27 08:00:08;;;;;;;2.30;1.90;;;;;;;2.50;89.94;97611.66;5038123;28;21129;-71
2022/02/27 08:02:34;;;;;;;2.13;1.67;;;;;;;2.10;91.12;97615.97;5038562;28;20312;-70
2022/02/27 08:05:02;;;;;;;5.23;1.87;;;;;;;2.43;91.27;97607.78;5040186;28;20201;-71
2022/02/27 08:07:28;;;;;;;2.77;1.37;;;;;;;2.45;89.94;97618.91;5039151;28;20713;-71
2022/02/27 08:09:55;;;;;;;0.80;0.80;;;;;;;2.59;89.96;97613.69;5039697;28;20570;-70
2022/02/27 08:12:21;;;;;;;4.73;2.30;;;;;;;2.75;88.97;97614.44;5038310;28;20225;-70
2022/02/27 08:14:48;;;;;;;1.80;1.40;;;;;;;2.48;88.57;97616.16;5036947;28;20205;-71
2022/02/27 08:17:16;;;;;;;2.33;2.07;;;;;;;2.56;89.79;97619.09;5038286;28;20557;-70
2022/02/27 08:19:43;;;;;;;4.43;1.73;;;;;;;2.97;89.12;97608.69;5037982;28;20205;-70
2022/02/27 08:22:11;;;;;;;6.17;2.30;;;;;;;3.17;88.65;97612.50;5037905;28;20231;-70
2022/02/27 08:24:37;;;;;;;12.03;1.70;;;;;;;2.79;88.70;97610.69;5038587;28;20217;-71
2022/02/27 08:27:04;;;;;;;5.10;2.33;;;;;;;3.24;87.87;97607.75;5038231;28;20225;-70
2022/02/27 08:29:31;;;;;;;6.40;1.70;;;;;;;3.53;86.47;97607.50;5035484;28;20688;-70
2022/02/27 08:31:57;;;;;;;3.57;2.50;;;;;;;3.54;86.33;97608.31;5036694;28;20219;-69
2022/02/27 08:34:27;;;;;;;5.00;1.70;;;;;;;3.78;86.30;97612.72;5034504;28;20202;-70
2022/02/27 08:36:54;;;;;;;3.70;2.47;;;;;;;3.75;85.93;97612.94;5037372;28;20201;-70
2022/02/27 08:39:22;;;;;;;10.60;2.40;;;;;;;4.13;84.29;97608.59;5035287;28;20209;-70
2022/02/27 08:41:48;;;;;;;5.30;2.10;;;;;;;3.98;84.29;97618.28;5035192;28;20603;-71
2022/02/27 08:44:14;;;;;;;1.73;1.43;;;;;;;3.94;84.06;97610.78;5037334;28;20227;-71
2022/02/27 08:46:41;;;;;;;6.20;1.87;;;;;;;4.13;82.50;97617.25;5035458;28;20282;-72
2022/02/27 08:49:07;;;;;;;3.53;2.00;;;;;;;4.07;82.97;97615.03;5036091;28;20209;-72
2022/02/27 08:51:34;;;;;;;7.53;2.73;;;;;;;4.10;82.51;97612.25;5036107;28;20232;-72
2022/02/27 08:54:02;;;;;;;4.13;2.50;;;;;;;4.28;81.40;97605.78;5035016;28;20201;-72
2022/02/27 08:56:30;;;;;;;2.03;1.63;;;;;;;4.63;81.46;97599.72;5039206;28;20205;-72
2022/02/27 08:58:57;;;;;;;1.80;1.30;;;;;;;4.58;79.53;97609.69;5039636;28;20201;-72
2022/02/27 09:01:23;;;;;;;2.00;1.73;;;;;;;4.80;78.78;97620.28;5039249;28;20232;-72
2022/02/27 09:03:49;;;;;;;2.77;1.60;;;;;;;4.54;78.75;97617.84;5037727;28;20209;-72
2022/02/27 09:06:16;;;;;;;2.00;1.30;;;;;;;4.44;78.27;97624.63;5039401;28;20220;-72
2022/02/27 09:08:43;;;;;;;3.50;2.73;;;;;;;4.79;78.93;97618.63;5038987;28;20209;-72
2022/02/27 09:11:10;;;;;;;5.37;2.00;;;;;;;5.15;77.98;97622.03;5038669;28;21335;-72
2022/02/27 09:13:38;;;;;;;3.50;1.80;;;;;;;5.30;76.65;97615.69;5038083;28;20231;-72
2022/02/27 09:16:05;;;;;;;2.37;1.90;;;;;;;5.32;76.24;97603.38;5039001;28;20209;-72
2022/02/27 09:18:32;;;;;;;6.73;1.97;;;;;;;5.36;76.03;97606.56;5038658;28;20216;-71
2022/02/27 09:20:58;;;;;;;4.37;2.00;;;;;;;5.26;73.38;97608.22;5039360;28;20217;-71
2022/02/27 09:23:25;;;;;;;4.77;2.20;;;;;;;5.47;72.11;97599.59;5037752;28;20693;-71
2022/02/27 09:25:51;;;;;;;2.77;1.93;;;;;;;5.57;72.39;97603.22;5038994;28;20205;-72
2022/02/27 09:28:18;;;;;;;11.47;3.03;;;;;;;5.59;72.39;97596.09;5039282;28;21149;-72
2022/02/27 09:30:46;;;;;;;5.17;2.37;;;;;;;5.85;73.67;97592.38;5039335;28;20579;-72
2022/02/27 09:33:12;;;;;;;2.30;1.83;;;;;;;5.37;71.22;97596.00;5037859;28;20677;-71
2022/02/27 09:35:39;;;;;;;1.43;1.33;;;;;;;5.82;71.59;97590.84;5038286;28;20201;-72
2022/02/27 09:38:06;;;;;;;2.23;1.10;;;;;;;5.61;70.03;97594.19;5038250;28;20202;-72
2022/02/27 09:40:32;;;;;;;2.80;1.80;;;;;;;5.34;71.81;97600.63;5037852;28;20197;-71
2022/02/27 09:42:59;;;;;;;2.70;1.40;;;;;;;5.61;70.53;97596.81;5038192;28;20232;-71
2022/02/27 09:45:26;;;;;;;1.33;1.23;;;;;;;5.96;68.85;97595.00;5039306;28;20216;-72
2022/02/27 09:47:55;;;;;;;5.17;1.60;;;;;;;6.16;67.87;97593.41;5039337;28;20261;-71
2022/02/27 09:50:23;;;;;;;4.73;1.77;;;;;;;6.47;69.49;97592.69;5039193;28;20201;-70
2022/02/27 09:52:50;;;;;;;1.87;1.13;;;;;;;6.29;66.48;97585.44;5038115;28;20221;-71
2022/02/27 09:55:18;;;;;;;1.50;1.23;;;;;;;6.43;66.44;97595.66;5039070;28;20205;-71
2022/02/27 09:57:46;;;;;;;3.03;1.40;;;;;;;6.59;64.11;97596.97;5039193;28;20197;-69
2022/02/27 10:00:14;;;;;;;3.00;1.63;;;;;;;6.54;64.36;97595.66;5039446;28;20299;-70
2022/02/27 10:03:06;;;;;;;3.20;1.67;;;;;;;6.43;66.47;97588.66;5037945;28;20611;-70
2022/02/27 10:05:33;;;;;;;2.67;1.50;;;;;;;6.55;65.79;97584.25;5038659;28;20243;-70
2022/02/27 10:08:00;;;;;;;3.60;1.90;;;;;;;6.52;64.15;97582.69;5039133;28;20233;-70
2022/02/27 10:10:28;;;;;;;2.83;1.40;;;;;;;6.08;64.16;97584.44;5039396;28;20204;-70
2022/02/27 10:12:55;;;;;;;3.40;1.60;;;;;;;6.14;63.36;97578.75;5037908;28;20217;-69
2022/02/27 10:15:21;;;;;;;3.20;1.27;;;;;;;6.45;63.07;97576.25;5039370;28;20197;-71
2022/02/27 10:17:51;;;;;;;6.80;1.60;;;;;;;6.88;63.20;97574.53;5038931;28;20216;-71
2022/02/27 10:20:24;;;;;;;3.13;1.80;;;;;;;6.77;61.27;97570.16;5038789;28;20642;-70
2022/02/27 10:22:54;;;;;;;1.37;1.13;;;;;;;7.25;56.65;97575.88;5038898;28;20287;-71
2022/02/27 10:25:22;;;;;;;3.47;1.23;;;;;;;7.23;53.85;97570.75;5039192;28;20201;-71
2022/02/27 10:27:49;;;;;;;0.63;0.50;;;;;;;6.89;49.21;97569.19;5039339;28;20228;-70
2022/02/27 10:30:24;;;;;;;7.37;1.10;;;;;;;7.06;50.83;97563.41;5039272;28;20201;-70
2022/02/27 10:32:55;;;;;;;2.23;1.60;;;;;;;7.45;52.39;97563.63;5037996;28;20217;-71
2022/02/27 10:35:41;;;;;;;1.83;1.20;;;;;;;7.82;52.22;97561.44;5038706;28;20210;-71
2022/02/27 10:38:10;;;;;;;0.63;0.63;;;;;;;7.59;52.10;97558.06;5038153;28;20200;-71
2022/02/27 10:40:38;;;;;;;1.27;0.70;;;;;;;7.30;54.32;97558.81;5038388;28;20218;-72
2022/02/27 10:43:06;;;;;;;1.93;1.23;;;;;;;7.11;52.89;97552.56;5037819;28;20201;-71
2022/02/27 10:45:33;;;;;;;0.93;0.70;;;;;;;6.99;53.81;97548.34;5038458;28;20209;-71
2022/02/27 10:48:05;;;;;;;2.30;1.30;;;;;;;7.20;52.47;97542.16;5038326;28;20221;-71
2022/02/27 10:50:31;;;;;;;2.13;0.93;;;;;;;7.20;50.29;97541.34;5037986;28;20205;-71
2022/02/27 10:53:00;;;;;;;2.00;1.10;;;;;;;7.20;50.66;97543.97;5037462;28;20239;-71
2022/02/27 10:55:27;;;;;;;2.07;1.10;;;;;;;7.04;52.10;97543.53;5037872;28;20252;-70
2022/02/27 10:57:54;;;;;;;0.83;0.83;;;;;;;7.61;50.04;97532.56;5037251;28;20810;-70
2022/02/27 11:00:23;;;;;;;0.97;0.77;;;;;;;7.81;50.15;97531.72;5038121;28;20240;-71
2022/02/27 11:02:51;;;;;;;4.70;1.20;;;;;;;7.85;51.50;97533.13;5037620;28;20236;-72
2022/02/27 11:05:20;;;;;;;1.30;1.20;;;;;;;7.60;49.80;97530.91;5038181;28;20201;-71
2022/02/27 11:07:51;;;;;;;1.57;1.13;;;;;;;7.45;51.75;97540.03;5038061;28;20229;-72
2022/02/27 11:10:20;;;;;;;1.17;0.87;;;;;;;7.62;49.62;97543.88;5038354;28;20197;-71
2022/02/27 11:12:47;;;;;;;1.23;1.00;;;;;;;7.90;49.64;97536.19;5037031;28;20225;-71
2022/02/27 11:15:16;;;;;;;2.20;1.27;;;;;;;7.64;49.40;97534.91;5037791;28;20670;-72
2022/02/27 11:17:44;;;;;;;0.47;0.47;;;;;;;7.74;48.76;97522.72;5036834;28;20227;-71
2022/02/27 11:20:12;;;;;;;1.23;0.83;;;;;;;7.50;49.57;97524.75;5034553;28;20202;-70
2022/02/27 11:22:38;;;;;;;1.50;1.23;;;;;;;7.59;48.41;97529.22;5036324;28;20229;-72
2022/02/27 11:25:08;;;;;;;1.37;0.70;;;;;;;7.94;48.01;97527.09;5036994;28;20201;-72
2022/02/27 11:27:38;;;;;;;1.27;0.90;;;;;;;7.48;50.16;97515.34;5038205;28;20267;-72
2022/02/27 11:30:07;;;;;;;1.03;0.70;;;;;;;7.70;50.43;97516.06;5035559;28;20267;-72
2022/02/27 11:32:34;;;;;;;2.70;1.03;;;;;;;7.85;49.62;97514.75;5035609;28;20271;-72
2022/02/27 11:35:00;;;;;;;1.07;0.90;;;;;;;7.80;47.81;97511.66;5036599;28;20521;-71
2022/02/27 11:37:49;;;;;;;0.70;0.70;;;;;;;8.46;45.99;97506.75;5037342;28;20223;-72
2022/02/27 11:40:29;;;;;;;2.27;1.33;;;;;;;8.17;47.70;97510.25;5036700;28;20224;-71